createdAt,value
2019-05-02T00:01:09.710Z,89.50
2019-05-02T00:02:09.947Z,100.30
2019-05-02T00:04:19.980Z,103.80
2019-05-02T00:05:14.335Z,105.80
2019-05-02T00:07:20.119Z,102.80
2019-05-02T00:08:19.240Z,104.80
2019-05-02T00:10:24.861Z,105.30
2019-05-02T00:11:23.643Z,107.10
2019-05-02T00:13:27.833Z,106.60
2019-05-02T00:14:28.064Z,102.40
2019-05-02T00:16:32.238Z,107.20
2019-05-02T00:17:32.474Z,108.90
2019-05-02T00:19:36.627Z,110.20
2019-05-02T00:20:36.864Z,112.50
2019-05-02T00:22:41.534Z,118.70
2019-05-02T00:23:41.768Z,121.70
2019-05-02T00:25:47.266Z,121.60
2019-05-02T00:26:46.156Z,118.90
2019-05-02T00:28:50.338Z,123.00
2019-05-02T00:29:53.777Z,126.20
2019-05-02T00:31:46.865Z,130.70
2019-05-02T00:32:44.412Z,132.60
2019-05-02T00:34:49.055Z,136.90
2019-05-02T00:35:49.294Z,142.10
2019-05-02T00:37:57.456Z,147.30
2019-05-02T00:38:53.704Z,160.90
2019-05-02T00:41:02.215Z,157.20
2019-05-02T00:41:58.101Z,153.10
2019-05-02T00:44:05.983Z,156.90
2019-05-02T00:45:02.519Z,153.40
2019-05-02T00:47:10.866Z,166.30
2019-05-02T00:48:06.938Z,174.90
2019-05-02T00:50:12.672Z,173.70
2019-05-02T00:51:11.821Z,163.80
2019-05-02T00:53:16.486Z,169.90
2019-05-02T00:54:19.128Z,166.70
2019-05-02T00:56:20.886Z,170.20
2019-05-02T00:57:21.784Z,162.00
2019-05-02T00:59:25.298Z,197.80
2019-05-02T01:00:25.540Z,166.40
2019-05-02T01:02:29.714Z,167.20
2019-05-02T01:03:31.992Z,164.00
2019-05-02T01:05:38.375Z,173.10
2019-05-02T01:06:34.832Z,180.10
2019-05-02T01:08:39.501Z,167.60
2019-05-02T01:09:42.231Z,184.70
2019-05-02T01:11:33.324Z,183.60
2019-05-02T01:12:33.547Z,190.80
2019-05-02T01:14:37.717Z,186.90
2019-05-02T01:15:38.960Z,184.90
2019-05-02T01:17:42.150Z,198.00
2019-05-02T01:18:42.582Z,195.80
2019-05-02T01:20:46.516Z,189.90
2019-05-02T01:21:46.751Z,189.60
2019-05-02T01:23:51.420Z,189.90
2019-05-02T01:24:51.655Z,197.90
2019-05-02T01:26:59.855Z,201.10
2019-05-02T01:27:56.538Z,196.00
2019-05-02T01:30:01.645Z,189.10
2019-05-02T01:31:00.955Z,178.70
2019-05-02T01:33:06.601Z,172.10
2019-05-02T01:34:05.372Z,160.40
2019-05-02T01:36:10.013Z,137.50
2019-05-02T01:37:12.413Z,138.30
2019-05-02T01:39:14.425Z,172.10
2019-05-02T01:40:17.741Z,193.10
2019-05-02T01:42:07.751Z,191.00
2019-05-02T01:43:07.988Z,184.10
2019-05-02T01:45:12.605Z,138.80
2019-05-02T01:46:12.398Z,151.30
2019-05-02T01:48:17.069Z,180.40
2019-05-02T01:49:21.720Z,205.80
2019-05-02T01:51:21.955Z,199.60
2019-05-02T01:52:23.786Z,225.10
2019-05-02T01:54:26.364Z,239.80
2019-05-02T01:55:26.600Z,234.70
2019-05-02T01:57:31.243Z,221.50
2019-05-02T01:58:31.472Z,218.60
2019-05-02T02:00:36.139Z,241.50
2019-05-02T02:01:36.377Z,248.10
2019-05-02T02:03:45.625Z,243.90
2019-05-02T02:04:41.294Z,235.80
2019-05-02T02:06:45.445Z,243.10
2019-05-02T02:07:45.681Z,229.20
2019-05-02T02:09:50.352Z,237.90
2019-05-02T02:10:56.636Z,235.80
2019-05-02T02:13:03.324Z,238.60
2019-05-02T02:13:54.976Z,243.50
2019-05-02T02:16:00.265Z,251.60
2019-05-02T02:16:59.385Z,263.50
2019-05-02T02:19:05.351Z,282.60
2019-05-02T02:20:04.288Z,268.70
2019-05-02T02:22:02.836Z,274.80
2019-05-02T02:22:58.093Z,276.40
2019-05-02T02:25:02.982Z,278.00
2019-05-02T02:26:06.791Z,275.30
2019-05-02T02:28:07.643Z,298.70
2019-05-02T02:29:09.330Z,294.30
2019-05-02T02:31:12.558Z,295.50
2019-05-02T02:32:12.794Z,296.80
2019-05-02T02:34:21.585Z,276.80
2019-05-02T02:35:17.217Z,258.00
2019-05-02T02:37:21.866Z,133.40
2019-05-02T02:38:26.822Z,183.00
2019-05-02T02:40:32.862Z,137.90
2019-05-02T02:41:26.519Z,166.00
2019-05-02T02:43:34.538Z,219.00
2019-05-02T02:44:33.612Z,225.30
2019-05-02T02:46:37.897Z,244.70
2019-05-02T02:47:35.945Z,232.30
2019-05-02T02:49:40.691Z,247.40
2019-05-02T02:50:42.976Z,245.90
2019-05-02T02:52:47.135Z,258.50
2019-05-02T02:53:45.682Z,260.40
2019-05-02T02:56:01.184Z,248.50
2019-05-02T02:56:50.036Z,246.70
2019-05-02T02:58:54.683Z,229.70
2019-05-02T03:00:06.821Z,239.40
2019-05-02T03:01:48.523Z,247.40
2019-05-02T03:02:50.043Z,244.40
2019-05-02T03:04:53.425Z,234.10
2019-05-02T03:05:58.599Z,221.30
2019-05-02T03:07:59.564Z,226.10
2019-05-02T03:08:58.559Z,221.20
2019-05-02T03:11:03.230Z,221.40
2019-05-02T03:12:04.551Z,228.10
2019-05-02T03:14:09.658Z,244.30
2019-05-02T03:15:08.357Z,264.60
2019-05-02T03:17:13.033Z,206.80
2019-05-02T03:18:13.272Z,226.80
2019-05-02T03:20:17.943Z,182.60
2019-05-02T03:21:20.940Z,186.10
2019-05-02T03:23:24.168Z,184.00
2019-05-02T03:24:22.582Z,197.40
2019-05-02T03:26:27.249Z,184.90
2019-05-02T03:27:29.706Z,191.70
2019-05-02T03:29:41.272Z,206.40
2019-05-02T03:30:37.553Z,248.00
2019-05-02T03:32:36.833Z,270.90
2019-05-02T03:33:51.586Z,256.20
2019-05-02T03:35:48.080Z,279.50
2019-05-02T03:36:41.698Z,353.20
2019-05-02T03:38:45.847Z,322.90
2019-05-02T03:39:49.408Z,545.10
2019-05-02T03:41:39.673Z,524.30
2019-05-02T03:42:44.558Z,592.30
2019-05-02T03:44:55.031Z,609.80
2019-05-02T03:45:44.794Z,621.00
2019-05-02T03:47:49.472Z,590.50
2019-05-02T03:48:49.709Z,550.50
2019-05-02T03:50:54.385Z,588.80
2019-05-02T03:51:56.033Z,661.70
2019-05-02T03:54:07.424Z,576.60
2019-05-02T03:54:59.014Z,618.10
2019-05-02T03:57:03.685Z,610.50
2019-05-02T03:58:13.106Z,714.50
2019-05-02T04:00:13.865Z,867.80
2019-05-02T04:01:08.808Z,885.10
2019-05-02T04:03:12.979Z,828.20
2019-05-02T04:04:14.091Z,741.30
2019-05-02T04:06:21.102Z,866.70
2019-05-02T04:07:18.127Z,995.20
2019-05-02T04:09:22.761Z,797.40
2019-05-02T04:10:22.994Z,893.70
2019-05-02T04:12:27.666Z,899.70
2019-05-02T04:13:30.189Z,822.60
2019-05-02T04:15:35.190Z,763.20
2019-05-02T04:16:32.780Z,763.20
2019-05-02T04:18:38.452Z,731.00
2019-05-02T04:19:38.700Z,761.60
2019-05-02T04:21:31.801Z,796.40
2019-05-02T04:22:32.070Z,863.00
2019-05-02T04:24:36.718Z,782.80
2019-05-02T04:25:36.957Z,858.30
2019-05-02T04:27:41.627Z,977.90
2019-05-02T04:28:45.620Z,967.50
2019-05-02T04:30:51.095Z,982.10
2019-05-02T04:31:46.243Z,928.10
2019-05-02T04:33:50.916Z,963.80
2019-05-02T04:34:55.769Z,969.80
2019-05-02T04:37:00.912Z,872.00
2019-05-02T04:37:59.164Z,833.60
2019-05-02T04:40:03.243Z,951.10
2019-05-02T04:41:00.946Z,928.80
2019-05-02T04:43:08.200Z,953.20
2019-05-02T04:44:08.882Z,876.90
2019-05-02T04:46:18.105Z,894.30
2019-05-02T04:47:17.317Z,828.00
2019-05-02T04:49:20.092Z,793.60
2019-05-02T04:50:18.779Z,836.40
2019-05-02T04:52:12.381Z,766.40
2019-05-02T04:53:09.998Z,831.60
2019-05-02T04:55:22.902Z,749.30
2019-05-02T04:56:14.882Z,662.80
2019-05-02T04:58:27.601Z,423.40
2019-05-02T04:59:22.756Z,503.50
2019-05-02T05:01:23.950Z,461.00
2019-05-02T05:02:34.677Z,522.90
2019-05-02T05:04:33.277Z,559.50
2019-05-02T05:05:31.269Z,611.30
2019-05-02T05:07:40.855Z,760.70
2019-05-02T05:08:35.001Z,759.70
2019-05-02T05:10:41.461Z,577.50
2019-05-02T05:11:39.894Z,384.30
2019-05-02T05:13:44.572Z,445.90
2019-05-02T05:14:44.798Z,361.60
2019-05-02T05:16:55.346Z,322.00
2019-05-02T05:17:50.686Z,379.60
2019-05-02T05:19:57.694Z,473.70
2019-05-02T05:20:57.750Z,578.20
2019-05-02T05:23:02.253Z,519.20
2019-05-02T05:24:02.489Z,368.20
2019-05-02T05:26:07.448Z,300.80
2019-05-02T05:27:08.280Z,428.20
2019-05-02T05:29:13.910Z,339.40
2019-05-02T05:30:15.614Z,428.00
2019-05-02T05:32:09.850Z,476.60
2019-05-02T05:33:09.962Z,461.40
2019-05-02T05:35:13.184Z,641.90
2019-05-02T05:36:13.025Z,605.50
2019-05-02T05:38:22.840Z,600.10
2019-05-02T05:39:18.932Z,650.50
2019-05-02T05:41:23.591Z,419.40
2019-05-02T05:42:30.156Z,423.90
2019-05-02T05:44:32.664Z,411.30
2019-05-02T05:45:29.730Z,433.70
2019-05-02T05:47:35.386Z,491.50
2019-05-02T05:48:37.200Z,574.20
2019-05-02T05:50:41.598Z,302.00
2019-05-02T05:51:41.535Z,308.90
2019-05-02T05:53:47.886Z,346.50
2019-05-02T05:54:47.392Z,382.00
2019-05-02T05:56:52.101Z,205.30
2019-05-02T05:57:59.489Z,247.50
2019-05-02T05:59:58.561Z,235.10
2019-05-02T06:00:58.478Z,261.60
2019-05-02T06:03:13.035Z,238.10
2019-05-02T06:04:03.142Z,192.80
2019-05-02T06:06:10.274Z,154.00
2019-05-02T06:07:09.058Z,169.70
2019-05-02T06:09:14.729Z,292.10
2019-05-02T06:10:14.969Z,166.50
2019-05-02T06:12:08.556Z,144.20
2019-05-02T06:13:11.120Z,117.70
2019-05-02T06:15:14.469Z,357.50
2019-05-02T06:16:15.399Z,212.50
2019-05-02T06:18:20.354Z,127.30
2019-05-02T06:19:20.591Z,130.20
2019-05-02T06:21:25.276Z,230.40
2019-05-02T06:22:25.725Z,187.60
2019-05-02T06:24:33.767Z,155.20
2019-05-02T06:25:34.382Z,146.80
2019-05-02T06:27:36.099Z,109.00
2019-05-02T06:28:41.472Z,118.40
2019-05-02T06:30:41.025Z,126.10
2019-05-02T06:31:43.054Z,147.40
2019-05-02T06:33:45.924Z,203.30
2019-05-02T06:34:47.540Z,196.20
2019-05-02T06:36:51.838Z,266.70
2019-05-02T06:37:52.113Z,195.80
2019-05-02T06:39:57.748Z,235.10
2019-05-02T06:40:57.985Z,481.00
2019-05-02T06:43:04.179Z,500.40
2019-05-02T06:44:02.885Z,397.00
2019-05-02T06:46:16.010Z,217.90
2019-05-02T06:47:07.804Z,197.30
2019-05-02T06:49:12.468Z,196.10
2019-05-02T06:50:12.710Z,231.40
2019-05-02T06:52:06.339Z,236.40
2019-05-02T06:53:09.634Z,196.00
2019-05-02T06:55:11.239Z,199.40
2019-05-02T06:56:12.687Z,161.50
2019-05-02T06:58:16.135Z,162.80
2019-05-02T06:59:18.606Z,156.80
2019-05-02T07:01:22.942Z,156.00
2019-05-02T07:02:22.283Z,149.60
2019-05-02T07:04:26.942Z,138.70
2019-05-02T07:05:27.424Z,139.50
2019-05-02T07:07:36.899Z,124.80
2019-05-02T07:08:32.297Z,128.90
2019-05-02T07:10:44.403Z,120.50
2019-05-02T07:11:39.044Z,120.90
2019-05-02T07:13:43.692Z,121.00
2019-05-02T07:14:41.919Z,126.30
2019-05-02T07:16:49.630Z,116.50
2019-05-02T07:17:46.838Z,107.30
2019-05-02T07:19:51.494Z,103.90
2019-05-02T07:20:51.732Z,108.50
2019-05-02T07:22:56.407Z,100.40
2019-05-02T07:23:56.647Z,106.40
2019-05-02T07:26:00.830Z,96.70
2019-05-02T07:27:02.536Z,102.10
2019-05-02T07:29:05.232Z,102.10
2019-05-02T07:30:05.474Z,101.00
2019-05-02T07:31:59.092Z,105.40
2019-05-02T07:33:01.104Z,104.20
2019-05-02T07:35:03.997Z,102.30
2019-05-02T07:36:04.235Z,95.50
2019-05-02T07:38:08.916Z,98.30
2019-05-02T07:39:09.157Z,99.50
2019-05-02T07:41:13.843Z,93.70
2019-05-02T07:42:14.082Z,90.70
2019-05-02T07:44:18.745Z,89.60
2019-05-02T07:45:18.985Z,91.40
2019-05-02T07:47:23.666Z,89.10
2019-05-02T07:48:23.908Z,95.00
2019-05-02T07:50:28.588Z,88.50
2019-05-02T07:51:28.834Z,87.40
2019-05-02T07:53:33.009Z,84.60
2019-05-02T07:54:33.251Z,89.40
2019-05-02T07:56:37.945Z,79.20
2019-05-02T07:57:38.186Z,77.30
2019-05-02T07:59:42.845Z,75.30
2019-05-02T08:00:43.089Z,77.60
2019-05-02T08:02:47.279Z,78.80
2019-05-02T08:03:47.523Z,77.70
2019-05-02T08:05:54.354Z,77.40
2019-05-02T08:06:51.957Z,80.80
2019-05-02T08:08:56.134Z,72.30
2019-05-02T08:09:56.379Z,70.20
2019-05-02T08:11:49.525Z,74.20
2019-05-02T08:12:49.778Z,74.60
2019-05-02T08:14:53.923Z,72.00
2019-05-02T08:15:54.167Z,75.50
2019-05-02T08:17:58.849Z,69.00
2019-05-02T08:19:01.286Z,66.50
2019-05-02T08:21:03.292Z,65.80
2019-05-02T08:22:04.171Z,71.10
2019-05-02T08:24:08.209Z,68.10
2019-05-02T08:25:10.412Z,66.40
2019-05-02T08:27:12.673Z,69.90
2019-05-02T08:28:15.842Z,68.00
2019-05-02T08:30:17.085Z,68.80
2019-05-02T08:31:19.031Z,69.30
2019-05-02T08:33:22.027Z,69.00
2019-05-02T08:34:22.283Z,64.50
2019-05-02T08:36:26.470Z,66.50
2019-05-02T08:37:26.729Z,66.80
2019-05-02T08:39:33.733Z,64.10
2019-05-02T08:40:31.137Z,65.20
2019-05-02T08:42:35.331Z,66.30
2019-05-02T08:43:35.581Z,63.90
2019-05-02T08:45:39.760Z,62.00
2019-05-02T08:46:40.008Z,66.30
2019-05-02T08:48:44.695Z,61.70
2019-05-02T08:49:49.278Z,60.90
2019-05-02T08:51:38.073Z,62.40
2019-05-02T08:52:42.217Z,63.40
2019-05-02T08:54:42.988Z,61.80
2019-05-02T08:55:45.342Z,60.20
2019-05-02T08:57:47.433Z,58.00
2019-05-02T08:58:49.824Z,59.70
2019-05-02T09:00:51.861Z,61.70
2019-05-02T09:01:52.107Z,62.60
2019-05-02T09:03:57.015Z,59.40
2019-05-02T09:04:58.812Z,64.40
2019-05-02T09:07:00.963Z,63.30
2019-05-02T09:08:01.021Z,62.10
2019-05-02T09:10:05.782Z,61.80
2019-05-02T09:11:05.453Z,60.80
2019-05-02T09:13:09.651Z,64.10
2019-05-02T09:14:09.899Z,63.10
2019-05-02T09:16:14.081Z,62.50
2019-05-02T09:17:16.540Z,60.70
2019-05-02T09:19:21.328Z,57.70
2019-05-02T09:20:20.956Z,64.30
2019-05-02T09:22:13.214Z,62.20
2019-05-02T09:23:12.442Z,58.00
2019-05-02T09:25:16.843Z,59.30
2019-05-02T09:26:17.093Z,60.40
2019-05-02T09:28:22.471Z,57.00
2019-05-02T09:29:22.218Z,56.80
2019-05-02T09:31:25.723Z,53.70
2019-05-02T09:32:26.624Z,55.80
2019-05-02T09:34:31.906Z,50.00
2019-05-02T09:35:30.422Z,53.30
2019-05-02T09:37:34.626Z,51.90
2019-05-02T09:38:34.874Z,50.10
2019-05-02T09:40:39.059Z,47.80
2019-05-02T09:41:39.308Z,51.40
2019-05-02T09:43:43.521Z,46.70
2019-05-02T09:44:47.952Z,47.80
2019-05-02T09:46:55.197Z,50.30
2019-05-02T09:48:01.321Z,44.80
2019-05-02T09:49:53.102Z,43.70
2019-05-02T09:50:52.887Z,42.50
2019-05-02T09:52:56.856Z,46.10
2019-05-02T09:54:01.917Z,45.20
2019-05-02T09:56:02.200Z,43.90
2019-05-02T09:57:02.806Z,45.60
2019-05-02T09:59:23.494Z,44.40
2019-05-02T10:00:05.992Z,44.40
2019-05-02T10:01:59.101Z,41.60
2019-05-02T10:02:59.359Z,39.80
2019-05-02T10:05:03.555Z,39.30
2019-05-02T10:06:03.803Z,41.80
2019-05-02T10:08:11.018Z,42.20
2019-05-02T10:09:08.265Z,43.30
2019-05-02T10:11:16.633Z,41.70
2019-05-02T10:12:12.707Z,42.60
2019-05-02T10:14:16.910Z,37.20
2019-05-02T10:15:17.186Z,41.80
2019-05-02T10:17:23.001Z,39.20
2019-05-02T10:18:28.277Z,37.80
2019-05-02T10:20:34.096Z,37.30
2019-05-02T10:21:26.046Z,36.60
2019-05-02T10:23:32.113Z,35.50
2019-05-02T10:24:32.214Z,35.40
2019-05-02T10:26:34.692Z,35.50
2019-05-02T10:27:38.415Z,33.30
2019-05-02T10:29:39.154Z,34.30
2019-05-02T10:30:39.402Z,34.20
2019-05-02T10:32:47.146Z,33.70
2019-05-02T10:33:43.839Z,34.20
2019-05-02T10:35:48.051Z,32.50
2019-05-02T10:36:51.930Z,34.30
2019-05-02T10:38:54.820Z,31.40
2019-05-02T10:39:55.747Z,30.90
2019-05-02T10:41:45.868Z,30.40
2019-05-02T10:42:46.119Z,29.10
2019-05-02T10:44:52.121Z,32.10
2019-05-02T10:45:52.923Z,30.90
2019-05-02T10:47:54.763Z,31.10
2019-05-02T10:48:55.016Z,33.20
2019-05-02T10:50:59.224Z,30.90
2019-05-02T10:51:59.470Z,29.30
2019-05-02T10:54:03.683Z,30.00
2019-05-02T10:55:03.925Z,27.90
2019-05-02T10:57:08.103Z,26.30
2019-05-02T10:58:08.354Z,26.00
2019-05-02T11:00:12.558Z,25.50
2019-05-02T11:01:12.808Z,25.20
2019-05-02T11:03:16.985Z,32.40
2019-05-02T11:04:17.232Z,31.30
2019-05-02T11:06:22.262Z,31.80
2019-05-02T11:07:26.051Z,32.40
2019-05-02T11:09:26.410Z,35.80
2019-05-02T11:10:26.129Z,31.40
2019-05-02T11:12:40.327Z,38.40
2019-05-02T11:13:32.185Z,34.70
2019-05-02T11:15:34.754Z,36.80
2019-05-02T11:16:35.001Z,34.20
2019-05-02T11:18:42.471Z,37.20
2019-05-02T11:19:39.424Z,35.70
2019-05-02T11:21:32.547Z,36.60
2019-05-02T11:22:32.791Z,35.90
2019-05-02T11:24:36.990Z,35.90
2019-05-02T11:25:37.238Z,35.20
2019-05-02T11:27:41.890Z,33.30
2019-05-02T11:28:41.668Z,34.50
2019-05-02T11:30:45.845Z,33.70
2019-05-02T11:31:46.090Z,33.50
2019-05-02T11:33:52.499Z,33.70
2019-05-02T11:34:52.363Z,33.40
2019-05-02T11:36:54.709Z,36.70
2019-05-02T11:37:54.954Z,39.40
2019-05-02T11:40:01.565Z,38.50
2019-05-02T11:40:59.390Z,37.30
2019-05-02T11:43:06.741Z,34.20
2019-05-02T11:44:03.803Z,31.50
2019-05-02T11:46:08.004Z,21.40
2019-05-02T11:47:08.249Z,20.90
2019-05-02T11:49:12.433Z,25.60
2019-05-02T11:50:12.666Z,27.40
2019-05-02T11:52:05.786Z,32.00
2019-05-02T11:53:09.249Z,31.60
2019-05-02T11:55:10.227Z,30.20
2019-05-02T11:56:11.648Z,30.50
2019-05-02T11:58:14.646Z,28.00
2019-05-02T11:59:15.070Z,25.00
2019-05-02T12:01:20.212Z,28.00
2019-05-02T12:02:19.337Z,26.50
2019-05-02T12:04:23.506Z,28.80
2019-05-02T12:05:26.637Z,30.10
2019-05-02T12:07:27.942Z,27.30
2019-05-02T12:08:28.192Z,25.40
2019-05-02T12:10:36.512Z,27.00
2019-05-02T12:11:32.639Z,26.20
2019-05-02T12:13:36.829Z,25.90
2019-05-02T12:14:37.114Z,23.40
2019-05-02T12:16:43.035Z,21.20
2019-05-02T12:17:41.953Z,23.60
2019-05-02T12:19:45.724Z,24.20
2019-05-02T12:20:45.969Z,22.80
2019-05-02T12:22:52.663Z,26.00
2019-05-02T12:23:52.558Z,24.90
2019-05-02T12:25:55.090Z,26.50
2019-05-02T12:26:55.336Z,27.70
2019-05-02T12:28:59.521Z,27.20
2019-05-02T12:29:59.772Z,29.40
2019-05-02T12:31:56.379Z,30.70
2019-05-02T12:32:53.204Z,33.60
2019-05-02T12:34:57.344Z,32.40
2019-05-02T12:35:57.590Z,31.80
2019-05-02T12:38:02.678Z,34.30
2019-05-02T12:39:02.582Z,33.30
2019-05-02T12:41:19.289Z,38.60
2019-05-02T12:42:06.708Z,42.30
2019-05-02T12:44:11.731Z,53.00
2019-05-02T12:45:12.295Z,38.40
2019-05-02T12:47:15.079Z,35.90
2019-05-02T12:48:15.326Z,39.60
2019-05-02T12:50:19.531Z,36.50
2019-05-02T12:51:19.778Z,38.80
2019-05-02T12:53:23.963Z,35.10
2019-05-02T12:54:24.203Z,35.60
2019-05-02T12:56:28.406Z,31.20
2019-05-02T12:57:28.655Z,30.80
2019-05-02T12:59:32.852Z,31.90
2019-05-02T13:00:33.100Z,32.10
2019-05-02T13:02:37.285Z,29.80
2019-05-02T13:03:37.540Z,31.60
2019-05-02T13:05:42.688Z,33.10
2019-05-02T13:06:42.471Z,32.90
2019-05-02T13:08:46.679Z,26.60
2019-05-02T13:09:46.929Z,26.90
2019-05-02T13:11:42.293Z,23.90
2019-05-02T13:12:41.847Z,23.90
2019-05-02T13:14:44.490Z,25.60
2019-05-02T13:15:44.739Z,28.40
2019-05-02T13:17:49.135Z,29.00
2019-05-02T13:18:49.170Z,27.50
2019-05-02T13:20:53.375Z,29.70
2019-05-02T13:21:58.234Z,28.30
2019-05-02T13:23:57.834Z,26.20
2019-05-02T13:24:58.081Z,23.50
2019-05-02T13:27:04.442Z,19.70
2019-05-02T13:28:03.010Z,18.60
2019-05-02T13:30:07.216Z,21.30
2019-05-02T13:31:07.465Z,24.90
2019-05-02T13:33:12.229Z,20.20
2019-05-02T13:34:14.743Z,19.90
2019-05-02T13:36:16.105Z,17.50
2019-05-02T13:37:16.355Z,16.80
2019-05-02T13:39:22.016Z,18.80
2019-05-02T13:40:22.464Z,18.30
2019-05-02T13:42:13.936Z,19.00
2019-05-02T13:43:14.192Z,18.90
2019-05-02T13:45:18.397Z,19.90
2019-05-02T13:46:18.645Z,18.50
2019-05-02T13:48:22.825Z,18.80
2019-05-02T13:49:23.075Z,18.70
2019-05-02T13:51:27.280Z,17.30
2019-05-02T13:52:27.526Z,18.30
2019-05-02T13:54:32.941Z,18.10
2019-05-02T13:55:31.966Z,18.40
2019-05-02T13:57:41.773Z,19.40
2019-05-02T13:58:36.415Z,19.20
2019-05-02T14:00:42.349Z,18.60
2019-05-02T14:01:42.372Z,19.50
2019-05-02T14:03:45.052Z,19.10
2019-05-02T14:04:45.302Z,18.50
2019-05-02T14:06:49.498Z,18.50
2019-05-02T14:07:53.990Z,18.30
2019-05-02T14:09:58.099Z,16.90
2019-05-02T14:10:55.187Z,17.90
2019-05-02T14:12:59.885Z,17.50
2019-05-02T14:14:01.851Z,15.30
2019-05-02T14:16:04.345Z,14.80
2019-05-02T14:17:04.592Z,16.20
2019-05-02T14:19:08.770Z,15.10
2019-05-02T14:20:11.608Z,14.90
2019-05-02T14:22:02.962Z,18.20
2019-05-02T14:23:02.440Z,14.30
2019-05-02T14:25:06.584Z,14.20
2019-05-02T14:26:06.831Z,14.00
2019-05-02T14:28:12.864Z,12.60
2019-05-02T14:29:12.595Z,12.00
2019-05-02T14:31:15.494Z,13.40
2019-05-02T14:32:23.359Z,13.10
2019-05-02T14:34:21.649Z,12.60
2019-05-02T14:35:23.995Z,13.20
2019-05-02T14:37:24.883Z,13.20
2019-05-02T14:38:25.131Z,14.00
2019-05-02T14:40:29.308Z,12.80
2019-05-02T14:41:35.979Z,13.70
2019-05-02T14:43:37.986Z,14.40
2019-05-02T14:45:01.329Z,12.60
2019-05-02T14:46:39.625Z,14.60
2019-05-02T14:47:38.442Z,15.40
2019-05-02T14:49:42.992Z,15.60
2019-05-02T14:50:45.694Z,15.30
2019-05-02T14:52:47.060Z,19.80
2019-05-02T14:53:47.308Z,14.00
2019-05-02T14:55:53.171Z,15.00
2019-05-02T14:56:52.309Z,13.80
2019-05-02T14:58:55.933Z,14.20
2019-05-02T14:59:59.677Z,14.00
2019-05-02T15:01:49.320Z,15.60
2019-05-02T15:02:51.458Z,16.30
2019-05-02T15:04:53.743Z,16.50
2019-05-02T15:05:54.002Z,17.00
2019-05-02T15:08:02.605Z,17.80
2019-05-02T15:08:58.435Z,16.90
2019-05-02T15:11:03.418Z,14.30
2019-05-02T15:12:08.231Z,14.80
2019-05-02T15:14:11.426Z,14.70
2019-05-02T15:15:07.312Z,15.70
2019-05-02T15:17:12.103Z,15.60
2019-05-02T15:18:15.926Z,14.80
2019-05-02T15:20:15.940Z,14.70
2019-05-02T15:21:16.442Z,15.50
2019-05-02T15:23:20.384Z,18.00
2019-05-02T15:24:22.945Z,15.30
2019-05-02T15:26:26.448Z,16.80
2019-05-02T15:27:25.133Z,15.90
2019-05-02T15:29:29.382Z,15.30
2019-05-02T15:30:29.620Z,16.60
2019-05-02T15:32:37.246Z,18.00
2019-05-02T15:33:34.074Z,15.10
2019-05-02T15:35:38.247Z,15.20
2019-05-02T15:36:42.259Z,14.70
2019-05-02T15:38:47.351Z,16.40
2019-05-02T15:41:39.827Z,16.30
2019-05-02T15:42:38.807Z,15.10
2019-05-02T15:44:42.994Z,16.60
2019-05-02T15:45:44.118Z,15.10
2019-05-02T15:47:47.435Z,16.00
2019-05-02T15:48:47.677Z,15.40
2019-05-02T15:50:54.585Z,15.90
2019-05-02T15:51:52.404Z,15.80
2019-05-02T15:54:05.004Z,15.00
2019-05-02T15:54:59.550Z,15.50
2019-05-02T15:57:03.188Z,15.80
2019-05-02T15:58:02.496Z,16.60
2019-05-02T16:00:05.123Z,13.30
2019-05-02T16:01:05.370Z,14.50
2019-05-02T16:03:09.566Z,15.00
2019-05-02T16:04:09.813Z,13.10
2019-05-02T16:06:16.385Z,13.30
2019-05-02T16:07:15.228Z,13.00
2019-05-02T16:09:19.417Z,15.00
2019-05-02T16:10:21.600Z,14.50
2019-05-02T16:12:12.754Z,14.80
2019-05-02T16:13:17.002Z,14.80
2019-05-02T16:15:24.825Z,15.20
2019-05-02T16:16:17.432Z,16.70
2019-05-02T16:18:21.660Z,14.40
2019-05-02T16:19:28.566Z,19.70
2019-05-02T16:21:29.056Z,49.10
2019-05-02T16:22:26.299Z,40.40
2019-05-02T16:24:32.148Z,20.60
2019-05-02T16:25:31.991Z,23.20
2019-05-02T16:27:34.895Z,19.30
2019-05-02T16:28:36.926Z,18.90
2019-05-02T16:30:44.166Z,14.70
2019-05-02T16:31:39.568Z,15.40
2019-05-02T16:33:43.764Z,16.20
2019-05-02T16:34:43.995Z,14.20
2019-05-02T16:36:48.186Z,15.20
2019-05-02T16:37:54.438Z,15.60
2019-05-02T16:39:52.623Z,15.80
2019-05-02T16:40:52.871Z,20.30
2019-05-02T16:42:57.035Z,15.50
2019-05-02T16:43:57.278Z,16.60
2019-05-02T16:46:01.788Z,15.40
2019-05-02T16:47:02.211Z,15.50
2019-05-02T16:49:08.790Z,16.00
2019-05-02T16:50:06.117Z,16.50
2019-05-02T16:52:05.021Z,15.80
2019-05-02T16:52:59.469Z,17.30
2019-05-02T16:55:03.661Z,14.40
2019-05-02T16:56:07.024Z,15.50
2019-05-02T16:58:08.072Z,13.40
2019-05-02T16:59:08.314Z,15.00
2019-05-02T17:01:14.885Z,15.20
2019-05-02T17:02:12.740Z,13.90
2019-05-02T17:04:16.911Z,12.00
2019-05-02T17:05:17.147Z,11.20
2019-05-02T17:07:22.110Z,12.80
2019-05-02T17:08:22.529Z,13.40
2019-05-02T17:10:25.768Z,13.10
2019-05-02T17:11:27.874Z,15.30
2019-05-02T17:13:34.204Z,16.20
2019-05-02T17:14:31.746Z,17.30
2019-05-02T17:16:34.613Z,26.20
2019-05-02T17:17:34.987Z,16.60
2019-05-02T17:19:39.024Z,17.30
2019-05-02T17:20:39.267Z,14.40
2019-05-02T17:22:44.477Z,15.70
2019-05-02T17:23:46.818Z,16.40
2019-05-02T17:25:47.901Z,16.00
2019-05-02T17:26:48.141Z,18.00
2019-05-02T17:28:52.336Z,18.80
2019-05-02T17:29:59.326Z,17.70
2019-05-02T17:31:49.916Z,16.80
2019-05-02T17:32:45.935Z,16.00
2019-05-02T17:34:50.104Z,20.60
2019-05-02T17:35:52.296Z,17.60
2019-05-02T17:37:55.035Z,18.40
2019-05-02T17:38:59.264Z,17.20
2019-05-02T17:41:04.915Z,14.80
2019-05-02T17:42:02.605Z,15.80
2019-05-02T17:44:04.886Z,14.70
2019-05-02T17:45:05.142Z,15.70
2019-05-02T17:47:09.689Z,16.80
2019-05-02T17:48:15.915Z,15.30
2019-05-02T17:50:18.038Z,14.60
2019-05-02T17:51:13.950Z,13.80
2019-05-02T17:53:18.124Z,15.00
2019-05-02T17:54:22.790Z,14.80
2019-05-02T17:56:23.275Z,14.40
2019-05-02T17:57:22.826Z,15.50
2019-05-02T17:59:28.354Z,13.40
2019-05-02T18:00:27.232Z,13.00
2019-05-02T18:02:31.747Z,14.10
2019-05-02T18:03:34.987Z,12.60
2019-05-02T18:05:35.891Z,13.50
2019-05-02T18:06:36.063Z,11.90
2019-05-02T18:08:41.725Z,14.10
2019-05-02T18:09:41.881Z,13.80
2019-05-02T18:11:36.569Z,11.80
2019-05-02T18:12:33.845Z,13.20
2019-05-02T18:14:37.999Z,15.30
2019-05-02T18:15:38.247Z,12.40
2019-05-02T18:17:42.797Z,13.60
2019-05-02T18:18:45.678Z,12.80
2019-05-02T18:20:46.813Z,13.00
2019-05-02T18:21:47.054Z,12.80
2019-05-02T18:23:52.039Z,13.90
2019-05-02T18:24:52.651Z,12.90
2019-05-02T18:26:55.673Z,11.40
2019-05-02T18:27:55.895Z,13.20
2019-05-02T18:30:02.121Z,13.60
2019-05-02T18:31:02.752Z,9.50
2019-05-02T18:33:07.189Z,11.00
2019-05-02T18:34:04.714Z,13.40
2019-05-02T18:36:08.873Z,12.90
2019-05-02T18:37:09.115Z,10.30
2019-05-02T18:39:13.293Z,10.70
2019-05-02T18:40:13.532Z,10.90
2019-05-02T18:42:06.619Z,12.00
2019-05-02T18:43:06.858Z,12.00
2019-05-02T18:45:12.660Z,10.90
2019-05-02T18:46:12.749Z,12.00
2019-05-02T18:48:15.461Z,12.20
2019-05-02T18:49:17.111Z,10.00
2019-05-02T18:51:21.747Z,12.30
2019-05-02T18:52:20.099Z,11.20
2019-05-02T18:54:24.282Z,11.00
2019-05-02T18:55:25.864Z,12.50
2019-05-02T18:57:29.631Z,14.20
2019-05-02T18:58:28.920Z,13.20
2019-05-02T19:00:37.622Z,12.10
2019-05-02T19:01:33.332Z,16.00
2019-05-02T19:03:37.515Z,11.50
2019-05-02T19:04:39.735Z,11.90
2019-05-02T19:06:42.098Z,9.50
2019-05-02T19:07:42.836Z,11.30
2019-05-02T19:09:51.059Z,10.60
2019-05-02T19:11:04.098Z,11.30
2019-05-02T19:12:50.865Z,13.20
2019-05-02T19:13:52.656Z,11.90
2019-05-02T19:15:55.295Z,10.90
2019-05-02T19:16:58.098Z,11.80
2019-05-02T19:19:01.578Z,11.90
2019-05-02T19:19:59.935Z,14.60
2019-05-02T19:21:53.017Z,10.20
2019-05-02T19:22:56.864Z,9.50
2019-05-02T19:24:57.431Z,12.10
2019-05-02T19:26:03.758Z,9.50
2019-05-02T19:28:02.842Z,11.70
2019-05-02T19:29:02.566Z,12.70
2019-05-02T19:31:07.073Z,11.20